RYR5805 EPMO-ESMS
Flight info
| Callsign | RYR5805 |
|---|---|
| Flight time | 1h 4m |
| Altitude | 30000 |
| Route | OLILA L621 LUSID/N0382F280 L621 ROE |
| Aircraft | B38M/M-SADE3FGILRWY/SB1 |
Departure
| Time | 2026-04-28 14:34 |
|---|---|
| Airport | Warsaw Modlin Airport (EPMO) |
Arrival
| Time | 2026-04-28 15:39 |
|---|---|
| Airport | Malmö Sturup Airport (ESMS) |
| Time | Latitude | Longitude | Altitude | Speed | Heading |
|---|---|---|---|---|---|
| 2026-04-28 14:03 | 52.44722 | 20.65019 | 340 ft | 0 kts | 206° |
| 2026-04-28 14:23 | 52.44725 | 20.65021 | 340 ft | 3 kts | 205° |
| 2026-04-28 14:24 | 52.44749 | 20.65032 | 339 ft | 4 kts | 173° |
| 2026-04-28 14:24 | 52.44767 | 20.65017 | 336 ft | 4 kts | 103° |
| 2026-04-28 14:24 | 52.44767 | 20.64999 | 338 ft | 1 kts | 81° |
| 2026-04-28 14:24 | 52.44767 | 20.64997 | 337 ft | 0 kts | 81° |
| 2026-04-28 14:29 | 52.44767 | 20.64999 | 337 ft | 1 kts | 81° |
| 2026-04-28 14:29 | 52.44769 | 20.65026 | 336 ft | 4 kts | 82° |
| 2026-04-28 14:29 | 52.44775 | 20.65092 | 340 ft | 8 kts | 81° |
| 2026-04-28 14:29 | 52.44786 | 20.65198 | 340 ft | 11 kts | 81° |
| 2026-04-28 14:30 | 52.44799 | 20.65343 | 340 ft | 15 kts | 81° |
| 2026-04-28 14:30 | 52.44816 | 20.65518 | 340 ft | 16 kts | 81° |
| 2026-04-28 14:30 | 52.44832 | 20.65715 | 340 ft | 19 kts | 82° |
| 2026-04-28 14:30 | 52.44853 | 20.65934 | 338 ft | 21 kts | 81° |
| 2026-04-28 14:31 | 52.44874 | 20.66164 | 341 ft | 18 kts | 82° |
| 2026-04-28 14:31 | 52.44895 | 20.66384 | 338 ft | 21 kts | 81° |
| 2026-04-28 14:31 | 52.44918 | 20.66625 | 341 ft | 22 kts | 81° |
| 2026-04-28 14:31 | 52.44938 | 20.66838 | 336 ft | 18 kts | 81° |
| 2026-04-28 14:32 | 52.44957 | 20.67033 | 337 ft | 10 kts | 71° |
| 2026-04-28 14:32 | 52.45019 | 20.67077 | 338 ft | 12 kts | 351° |
| 2026-04-28 14:32 | 52.45106 | 20.67055 | 336 ft | 14 kts | 351° |
| 2026-04-28 14:32 | 52.45207 | 20.67022 | 340 ft | 16 kts | 341° |
| 2026-04-28 14:33 | 52.45285 | 20.66948 | 343 ft | 10 kts | 278° |
| 2026-04-28 14:33 | 52.45275 | 20.66813 | 340 ft | 17 kts | 261° |
| 2026-04-28 14:33 | 52.45226 | 20.66293 | 336 ft | 86 kts | 262° |
| 2026-04-28 14:33 | 52.45091 | 20.64899 | 370 ft | 154 kts | 261° |
| 2026-04-28 14:34 | 52.44576 | 20.61157 | 2045 ft | 172 kts | 266° |
| 2026-04-28 14:34 | 52.44423 | 20.59132 | 2715 ft | 189 kts | 268° |
| 2026-04-28 14:34 | 52.44315 | 20.57647 | 3065 ft | 205 kts | 268° |
| 2026-04-28 14:35 | 52.44523 | 20.54588 | 4001 ft | 217 kts | 301° |
| 2026-04-28 14:35 | 52.45549 | 20.52694 | 4736 ft | 224 kts | 327° |
| 2026-04-28 14:35 | 52.46998 | 20.51575 | 5553 ft | 238 kts | 337° |
| 2026-04-28 14:35 | 52.48530 | 20.50341 | 6302 ft | 250 kts | 333° |
| 2026-04-28 14:36 | 52.50080 | 20.49056 | 7343 ft | 250 kts | 333° |
| 2026-04-28 14:36 | 52.51656 | 20.47772 | 8261 ft | 255 kts | 333° |
| 2026-04-28 14:36 | 52.53256 | 20.46486 | 9234 ft | 257 kts | 334° |
| 2026-04-28 14:36 | 52.54846 | 20.45215 | 10204 ft | 259 kts | 334° |
| 2026-04-28 14:37 | 52.56533 | 20.43868 | 10745 ft | 275 kts | 333° |
| 2026-04-28 14:37 | 52.58285 | 20.42468 | 11277 ft | 289 kts | 333° |
| 2026-04-28 14:37 | 52.60110 | 20.41015 | 12107 ft | 291 kts | 333° |
| 2026-04-28 14:37 | 52.61940 | 20.39565 | 13018 ft | 292 kts | 333° |
| 2026-04-28 14:38 | 52.63783 | 20.38106 | 13937 ft | 294 kts | 333° |
| 2026-04-28 14:38 | 52.65619 | 20.36653 | 14715 ft | 296 kts | 333° |
| 2026-04-28 14:38 | 52.67487 | 20.35174 | 15487 ft | 299 kts | 333° |
| 2026-04-28 14:38 | 52.69369 | 20.33676 | 16260 ft | 301 kts | 331° |
| 2026-04-28 14:39 | 52.71021 | 20.31569 | 17020 ft | 303 kts | 313° |
| 2026-04-28 14:39 | 52.72440 | 20.29019 | 17735 ft | 306 kts | 314° |
| 2026-04-28 14:39 | 52.73894 | 20.26416 | 18466 ft | 309 kts | 313° |
| 2026-04-28 14:39 | 52.75353 | 20.23771 | 19101 ft | 311 kts | 313° |
| 2026-04-28 14:40 | 52.76812 | 20.21106 | 19813 ft | 311 kts | 314° |
| 2026-04-28 14:40 | 52.77281 | 20.20244 | 20047 ft | 311 kts | 314° |
| 2026-04-28 14:40 | 52.79703 | 20.15783 | 21006 ft | 315 kts | 313° |
| 2026-04-28 14:40 | 52.81156 | 20.13039 | 21615 ft | 318 kts | 311° |
| 2026-04-28 14:41 | 52.82578 | 20.10213 | 22186 ft | 321 kts | 312° |
| 2026-04-28 14:41 | 52.83526 | 20.08336 | 22568 ft | 322 kts | 312° |
| 2026-04-28 14:41 | 52.85449 | 20.04527 | 23321 ft | 326 kts | 312° |
| 2026-04-28 14:41 | 52.86911 | 20.01631 | 23881 ft | 329 kts | 312° |
| 2026-04-28 14:42 | 52.87903 | 19.99665 | 24200 ft | 330 kts | 311° |
| 2026-04-28 14:42 | 52.89380 | 19.96734 | 24685 ft | 332 kts | 311° |
| 2026-04-28 14:42 | 52.90851 | 19.93813 | 25156 ft | 335 kts | 311° |
| 2026-04-28 14:42 | 52.92347 | 19.90839 | 25633 ft | 337 kts | 311° |
| 2026-04-28 14:43 | 52.93858 | 19.87830 | 26092 ft | 340 kts | 311° |
| 2026-04-28 14:43 | 52.95380 | 19.84797 | 26561 ft | 342 kts | 310° |
| 2026-04-28 14:43 | 52.96889 | 19.81785 | 27032 ft | 344 kts | 310° |
| 2026-04-28 14:43 | 52.98418 | 19.78731 | 27627 ft | 342 kts | 310° |
| 2026-04-28 14:44 | 52.99941 | 19.75686 | 28245 ft | 340 kts | 310° |
| 2026-04-28 14:44 | 53.01429 | 19.72704 | 28839 ft | 338 kts | 310° |
| 2026-04-28 14:44 | 53.02928 | 19.69701 | 29421 ft | 336 kts | 310° |
| 2026-04-28 14:44 | 53.04420 | 19.66705 | 29950 ft | 335 kts | 310° |
| 2026-04-28 14:45 | 53.05919 | 19.63719 | 30271 ft | 339 kts | 312° |
| 2026-04-28 14:45 | 53.09220 | 19.58160 | 30343 ft | 336 kts | 314° |
| 2026-04-28 14:46 | 53.12460 | 19.52631 | 30321 ft | 335 kts | 314° |
| 2026-04-28 14:46 | 53.15718 | 19.47034 | 30354 ft | 334 kts | 314° |
| 2026-04-28 14:47 | 53.18936 | 19.41486 | 30326 ft | 334 kts | 314° |
| 2026-04-28 14:47 | 53.22161 | 19.35912 | 30328 ft | 334 kts | 313° |
| 2026-04-28 14:48 | 53.25216 | 19.30065 | 30332 ft | 334 kts | 311° |
| 2026-04-28 14:48 | 53.28291 | 19.24171 | 30321 ft | 338 kts | 312° |
| 2026-04-28 14:49 | 53.31357 | 19.18291 | 30327 ft | 338 kts | 312° |
| 2026-04-28 14:49 | 53.34454 | 19.12341 | 30327 ft | 337 kts | 312° |
| 2026-04-28 14:50 | 53.37518 | 19.06441 | 30325 ft | 337 kts | 312° |
| 2026-04-28 14:50 | 53.40598 | 19.00495 | 30334 ft | 337 kts | 312° |
| 2026-04-28 14:51 | 53.43662 | 18.94567 | 30339 ft | 337 kts | 312° |
| 2026-04-28 14:51 | 53.46739 | 18.88597 | 30255 ft | 339 kts | 312° |
| 2026-04-28 14:52 | 53.49864 | 18.82523 | 30330 ft | 344 kts | 312° |
| 2026-04-28 14:52 | 53.52810 | 18.76253 | 30397 ft | 345 kts | 304° |
| 2026-04-28 14:53 | 53.55381 | 18.69496 | 30348 ft | 342 kts | 307° |
| 2026-04-28 14:53 | 53.58004 | 18.62806 | 30339 ft | 342 kts | 307° |
| 2026-04-28 14:54 | 53.60616 | 18.56155 | 30336 ft | 342 kts | 307° |
| 2026-04-28 14:54 | 53.63244 | 18.49452 | 30342 ft | 342 kts | 307° |
| 2026-04-28 14:55 | 53.65881 | 18.42709 | 30324 ft | 347 kts | 307° |
| 2026-04-28 14:55 | 53.68519 | 18.35946 | 30339 ft | 347 kts | 307° |
| 2026-04-28 14:56 | 53.71172 | 18.29124 | 30339 ft | 347 kts | 307° |
| 2026-04-28 14:56 | 53.73822 | 18.22293 | 30340 ft | 347 kts | 307° |
| 2026-04-28 14:57 | 53.76449 | 18.15501 | 30337 ft | 347 kts | 307° |
| 2026-04-28 14:57 | 53.79093 | 18.08649 | 30341 ft | 347 kts | 307° |
| 2026-04-28 14:58 | 53.81721 | 18.01819 | 30290 ft | 350 kts | 306° |
| 2026-04-28 14:58 | 53.84401 | 17.94833 | 30334 ft | 353 kts | 306° |
| 2026-04-28 14:59 | 53.87062 | 17.87878 | 30341 ft | 353 kts | 306° |
| 2026-04-28 14:59 | 53.89737 | 17.80867 | 30345 ft | 353 kts | 306° |
| 2026-04-28 15:00 | 53.92403 | 17.73860 | 30345 ft | 353 kts | 306° |
| 2026-04-28 15:00 | 53.95050 | 17.66883 | 30346 ft | 353 kts | 306° |
| 2026-04-28 15:01 | 53.97706 | 17.59864 | 30315 ft | 352 kts | 307° |
| 2026-04-28 15:01 | 54.00375 | 17.52791 | 30345 ft | 357 kts | 306° |
| 2026-04-28 15:02 | 54.03042 | 17.45702 | 30348 ft | 357 kts | 306° |
| 2026-04-28 15:02 | 54.05715 | 17.38576 | 30349 ft | 357 kts | 306° |
| 2026-04-28 15:03 | 54.08373 | 17.31469 | 30358 ft | 357 kts | 306° |
| 2026-04-28 15:03 | 54.11022 | 17.24368 | 30352 ft | 356 kts | 306° |
| 2026-04-28 15:04 | 54.13683 | 17.17215 | 30352 ft | 356 kts | 306° |
| 2026-04-28 15:04 | 54.16363 | 17.09988 | 30341 ft | 364 kts | 306° |
| 2026-04-28 15:05 | 54.19058 | 17.02703 | 30360 ft | 364 kts | 306° |
| 2026-04-28 15:05 | 54.21766 | 16.95367 | 30376 ft | 364 kts | 306° |
| 2026-04-28 15:06 | 54.24488 | 16.88071 | 30373 ft | 362 kts | 310° |
| 2026-04-28 15:06 | 54.27529 | 16.81275 | 30373 ft | 362 kts | 310° |
| 2026-04-28 15:07 | 54.30558 | 16.74363 | 30384 ft | 362 kts | 310° |
| 2026-04-28 15:07 | 54.33562 | 16.67464 | 30365 ft | 366 kts | 310° |
| 2026-04-28 15:08 | 54.36614 | 16.60432 | 30381 ft | 367 kts | 310° |
| 2026-04-28 15:08 | 54.39644 | 16.53428 | 30397 ft | 366 kts | 310° |
| 2026-04-28 15:09 | 54.42678 | 16.46397 | 30379 ft | 366 kts | 310° |
| 2026-04-28 15:09 | 54.45707 | 16.39355 | 30388 ft | 366 kts | 310° |
| 2026-04-28 15:10 | 54.48721 | 16.32331 | 30384 ft | 366 kts | 310° |
| 2026-04-28 15:10 | 54.51742 | 16.25269 | 30353 ft | 369 kts | 310° |
| 2026-04-28 15:11 | 54.54805 | 16.18089 | 30382 ft | 372 kts | 310° |
| 2026-04-28 15:11 | 54.57845 | 16.10940 | 30390 ft | 372 kts | 310° |
| 2026-04-28 15:12 | 54.60898 | 16.03743 | 30385 ft | 372 kts | 310° |
| 2026-04-28 15:12 | 54.63946 | 15.96535 | 30386 ft | 372 kts | 310° |
| 2026-04-28 15:13 | 54.66997 | 15.89299 | 30391 ft | 372 kts | 310° |
| 2026-04-28 15:13 | 54.70024 | 15.82103 | 30383 ft | 367 kts | 310° |
| 2026-04-28 15:13 | 54.71491 | 15.78607 | 30414 ft | 352 kts | 310° |
| 2026-04-28 15:14 | 54.72897 | 15.75249 | 30374 ft | 338 kts | 310° |
| 2026-04-28 15:14 | 54.74255 | 15.71968 | 30018 ft | 334 kts | 310° |
| 2026-04-28 15:14 | 54.75606 | 15.68704 | 29609 ft | 330 kts | 310° |
| 2026-04-28 15:14 | 54.76936 | 15.65490 | 29239 ft | 326 kts | 310° |
| 2026-04-28 15:15 | 54.78252 | 15.62305 | 28884 ft | 323 kts | 310° |
| 2026-04-28 15:15 | 54.79114 | 15.60217 | 28633 ft | 321 kts | 310° |
| 2026-04-28 15:15 | 54.80824 | 15.56070 | 28148 ft | 316 kts | 310° |
| 2026-04-28 15:15 | 54.82118 | 15.52928 | 27798 ft | 325 kts | 310° |
| 2026-04-28 15:16 | 54.83462 | 15.49659 | 27421 ft | 340 kts | 310° |
| 2026-04-28 15:16 | 54.84857 | 15.46263 | 27026 ft | 355 kts | 310° |
| 2026-04-28 15:16 | 54.86322 | 15.42690 | 26607 ft | 366 kts | 309° |
| 2026-04-28 15:16 | 54.87807 | 15.39062 | 26330 ft | 369 kts | 309° |
| 2026-04-28 15:17 | 54.89303 | 15.35405 | 26112 ft | 372 kts | 309° |
| 2026-04-28 15:17 | 54.90783 | 15.31781 | 25926 ft | 373 kts | 309° |
| 2026-04-28 15:17 | 54.92156 | 15.27939 | 25558 ft | 375 kts | 300° |
| 2026-04-28 15:17 | 54.93273 | 15.23871 | 25074 ft | 372 kts | 300° |
| 2026-04-28 15:18 | 54.94407 | 15.19813 | 24598 ft | 369 kts | 300° |
| 2026-04-28 15:18 | 54.95524 | 15.15810 | 24134 ft | 367 kts | 300° |
| 2026-04-28 15:18 | 54.96619 | 15.11876 | 23627 ft | 364 kts | 300° |
| 2026-04-28 15:18 | 54.97718 | 15.07922 | 23122 ft | 361 kts | 300° |
| 2026-04-28 15:19 | 54.98806 | 15.04001 | 22684 ft | 357 kts | 300° |
| 2026-04-28 15:19 | 54.99880 | 15.00126 | 22251 ft | 353 kts | 300° |
| 2026-04-28 15:19 | 55.00940 | 14.96293 | 21821 ft | 349 kts | 300° |
| 2026-04-28 15:19 | 55.01988 | 14.92497 | 21409 ft | 345 kts | 300° |
| 2026-04-28 15:20 | 55.03009 | 14.88790 | 20981 ft | 342 kts | 300° |
| 2026-04-28 15:20 | 55.04038 | 14.85051 | 20606 ft | 338 kts | 300° |
| 2026-04-28 15:20 | 55.05052 | 14.81360 | 20219 ft | 335 kts | 300° |
| 2026-04-28 15:20 | 55.06070 | 14.77678 | 19806 ft | 338 kts | 302° |
| 2026-04-28 15:21 | 55.07436 | 14.74487 | 19358 ft | 330 kts | 317° |
| 2026-04-28 15:21 | 55.09013 | 14.71593 | 19035 ft | 326 kts | 316° |
| 2026-04-28 15:21 | 55.10568 | 14.68735 | 18696 ft | 322 kts | 317° |
| 2026-04-28 15:21 | 55.12112 | 14.65923 | 18291 ft | 321 kts | 317° |
| 2026-04-28 15:22 | 55.13675 | 14.63090 | 17889 ft | 326 kts | 317° |
| 2026-04-28 15:22 | 55.15259 | 14.60225 | 17514 ft | 328 kts | 317° |
| 2026-04-28 15:22 | 55.16845 | 14.57357 | 17149 ft | 328 kts | 317° |
| 2026-04-28 15:22 | 55.18428 | 14.54495 | 16777 ft | 326 kts | 317° |
| 2026-04-28 15:23 | 55.19983 | 14.51679 | 16406 ft | 324 kts | 317° |
| 2026-04-28 15:23 | 55.21546 | 14.48847 | 16041 ft | 323 kts | 317° |
| 2026-04-28 15:23 | 55.23100 | 14.46027 | 15677 ft | 321 kts | 317° |
| 2026-04-28 15:23 | 55.24650 | 14.43210 | 15298 ft | 320 kts | 317° |
| 2026-04-28 15:24 | 55.26195 | 14.40400 | 14947 ft | 319 kts | 317° |
| 2026-04-28 15:24 | 55.27732 | 14.37602 | 14594 ft | 318 kts | 317° |
| 2026-04-28 15:24 | 55.29263 | 14.34810 | 14223 ft | 317 kts | 317° |
| 2026-04-28 15:24 | 55.30789 | 14.32026 | 13818 ft | 314 kts | 317° |
| 2026-04-28 15:25 | 55.32291 | 14.29280 | 13437 ft | 310 kts | 317° |
| 2026-04-28 15:25 | 55.33777 | 14.26562 | 13078 ft | 306 kts | 317° |
| 2026-04-28 15:25 | 55.35242 | 14.23879 | 12727 ft | 302 kts | 317° |
| 2026-04-28 15:25 | 55.36686 | 14.21229 | 12386 ft | 298 kts | 317° |
| 2026-04-28 15:26 | 55.38114 | 14.18609 | 12043 ft | 295 kts | 317° |
| 2026-04-28 15:26 | 55.39533 | 14.16001 | 11706 ft | 295 kts | 317° |
| 2026-04-28 15:26 | 55.40963 | 14.13369 | 11359 ft | 300 kts | 317° |
| 2026-04-28 15:26 | 55.42386 | 14.10748 | 11107 ft | 298 kts | 317° |
| 2026-04-28 15:27 | 55.43796 | 14.08148 | 10978 ft | 287 kts | 317° |
| 2026-04-28 15:27 | 55.45156 | 14.05638 | 10846 ft | 277 kts | 317° |
| 2026-04-28 15:27 | 55.46467 | 14.03215 | 10714 ft | 268 kts | 317° |
| 2026-04-28 15:27 | 55.47733 | 14.00872 | 10559 ft | 259 kts | 317° |
| 2026-04-28 15:28 | 55.48957 | 13.98606 | 10446 ft | 250 kts | 317° |
| 2026-04-28 15:28 | 55.50125 | 13.96442 | 10271 ft | 244 kts | 317° |
| 2026-04-28 15:28 | 55.51313 | 13.94241 | 9997 ft | 247 kts | 317° |
| 2026-04-28 15:28 | 55.52496 | 13.92043 | 9695 ft | 251 kts | 317° |
| 2026-04-28 15:29 | 55.53702 | 13.89800 | 9409 ft | 252 kts | 317° |
| 2026-04-28 15:29 | 55.54915 | 13.87542 | 9133 ft | 252 kts | 317° |
| 2026-04-28 15:29 | 55.56129 | 13.85284 | 8855 ft | 253 kts | 317° |
| 2026-04-28 15:29 | 55.57321 | 13.83061 | 8593 ft | 252 kts | 316° |
| 2026-04-28 15:30 | 55.58530 | 13.80810 | 8301 ft | 252 kts | 316° |
| 2026-04-28 15:30 | 55.59737 | 13.78553 | 8023 ft | 252 kts | 316° |
| 2026-04-28 15:30 | 55.60940 | 13.76302 | 7735 ft | 250 kts | 316° |
| 2026-04-28 15:30 | 55.62128 | 13.74077 | 7472 ft | 247 kts | 315° |
| 2026-04-28 15:31 | 55.62910 | 13.72615 | 7303 ft | 245 kts | 315° |
| 2026-04-28 15:31 | 55.64076 | 13.70429 | 7039 ft | 243 kts | 315° |
| 2026-04-28 15:31 | 55.65228 | 13.68266 | 6781 ft | 241 kts | 315° |
| 2026-04-28 15:31 | 55.66745 | 13.65418 | 6420 ft | 238 kts | 315° |
| 2026-04-28 15:32 | 55.67511 | 13.63979 | 6231 ft | 238 kts | 315° |
| 2026-04-28 15:32 | 55.68642 | 13.61851 | 5967 ft | 236 kts | 315° |
| 2026-04-28 15:32 | 55.69768 | 13.59733 | 5714 ft | 234 kts | 315° |
| 2026-04-28 15:32 | 55.70880 | 13.57638 | 5351 ft | 238 kts | 315° |
| 2026-04-28 15:33 | 55.72034 | 13.55461 | 4904 ft | 244 kts | 316° |
| 2026-04-28 15:33 | 55.73202 | 13.53253 | 4607 ft | 243 kts | 316° |
| 2026-04-28 15:33 | 55.74340 | 13.51102 | 4468 ft | 235 kts | 316° |
| 2026-04-28 15:33 | 55.75196 | 13.48708 | 4243 ft | 235 kts | 290° |
| 2026-04-28 15:34 | 55.75601 | 13.45922 | 4096 ft | 228 kts | 289° |
| 2026-04-28 15:34 | 55.75979 | 13.43241 | 3985 ft | 219 kts | 288° |
| 2026-04-28 15:34 | 55.76136 | 13.40609 | 3838 ft | 216 kts | 262° |
| 2026-04-28 15:34 | 55.75539 | 13.38174 | 3775 ft | 220 kts | 232° |
| 2026-04-28 15:35 | 55.74329 | 13.36458 | 3708 ft | 227 kts | 207° |
| 2026-04-28 15:35 | 55.71397 | 13.34266 | 3402 ft | 231 kts | 190° |
| 2026-04-28 15:35 | 55.69802 | 13.34209 | 3224 ft | 227 kts | 172° |
| 2026-04-28 15:36 | 55.68241 | 13.34579 | 2944 ft | 226 kts | 171° |
| 2026-04-28 15:36 | 55.66675 | 13.34929 | 2693 ft | 227 kts | 173° |
| 2026-04-28 15:36 | 55.65099 | 13.35252 | 2350 ft | 226 kts | 173° |
| 2026-04-28 15:36 | 55.63583 | 13.35566 | 2074 ft | 215 kts | 173° |
| 2026-04-28 15:37 | 55.62128 | 13.35869 | 1770 ft | 207 kts | 174° |
| 2026-04-28 15:37 | 55.60751 | 13.36153 | 1484 ft | 205 kts | 173° |
| 2026-04-28 15:37 | 55.59372 | 13.36436 | 1239 ft | 190 kts | 173° |
| 2026-04-28 15:37 | 55.58133 | 13.36694 | 988 ft | 168 kts | 173° |
| 2026-04-28 15:38 | 55.57023 | 13.36928 | 785 ft | 157 kts | 175° |
| 2026-04-28 15:38 | 55.55931 | 13.37159 | 539 ft | 156 kts | 173° |
| 2026-04-28 15:38 | 55.54885 | 13.37359 | 303 ft | 143 kts | 173° |
| 2026-04-28 15:38 | 55.53985 | 13.37549 | 245 ft | 114 kts | 173° |
| 2026-04-28 15:39 | 55.53425 | 13.37664 | 241 ft | 48 kts | 173° |
| 2026-04-28 15:39 | 55.53158 | 13.37719 | 242 ft | 34 kts | 173° |
| 2026-04-28 15:39 | 55.52993 | 13.37735 | 243 ft | 11 kts | 211° |
| 2026-04-28 15:39 | 55.52974 | 13.37582 | 238 ft | 14 kts | 263° |
| 2026-04-28 15:40 | 55.52993 | 13.37458 | 236 ft | 10 kts | 347° |
| 2026-04-28 15:40 | 55.53075 | 13.37440 | 236 ft | 13 kts | 353° |
| 2026-04-28 15:40 | 55.53176 | 13.37421 | 234 ft | 16 kts | 353° |
| 2026-04-28 15:40 | 55.53291 | 13.37396 | 236 ft | 17 kts | 354° |
| 2026-04-28 15:41 | 55.53415 | 13.37372 | 234 ft | 19 kts | 353° |
| 2026-04-28 15:41 | 55.53549 | 13.37343 | 235 ft | 19 kts | 353° |
| 2026-04-28 15:41 | 55.53690 | 13.37315 | 234 ft | 22 kts | 353° |
| 2026-04-28 15:41 | 55.53833 | 13.37285 | 235 ft | 17 kts | 353° |
| 2026-04-28 15:42 | 55.53937 | 13.37260 | 237 ft | 14 kts | 338° |
| 2026-04-28 15:42 | 55.53959 | 13.37105 | 233 ft | 14 kts | 263° |
| 2026-04-28 15:42 | 55.53948 | 13.36929 | 237 ft | 14 kts | 263° |
| 2026-04-28 15:42 | 55.53945 | 13.36799 | 236 ft | 3 kts | 310° |
| 2026-04-28 15:43 | 55.53953 | 13.36796 | 237 ft | 3 kts | 355° |
| 2026-04-28 15:43 | 55.53990 | 13.36790 | 235 ft | 5 kts | 354° |
| 2026-04-28 15:43 | 55.54009 | 13.36787 | 234 ft | 1 kts | 353° |
| 2026-04-28 15:43 | 55.54010 | 13.36786 | 234 ft | 0 kts | 353° |